createdAt,value
2023-04-12T00:02:35.612Z,97625.88
2023-04-12T00:05:38.982Z,97618.66
2023-04-12T00:08:47.129Z,97622.22
2023-04-12T00:11:50.321Z,97616.22
2023-04-12T00:14:53.623Z,97606.66
2023-04-12T00:17:56.908Z,97601.69
2023-04-12T00:21:00.556Z,97588.50
2023-04-12T00:24:05.463Z,97590.94
2023-04-12T00:27:08.845Z,97576.44
2023-04-12T00:30:13.225Z,97572.16
2023-04-12T00:33:18.068Z,97566.00
2023-04-12T00:36:22.154Z,97561.81
2023-04-12T00:39:27.326Z,97564.44
2023-04-12T00:42:33.146Z,97564.44
2023-04-12T00:45:37.280Z,97553.59
2023-04-12T00:48:40.701Z,97509.44
2023-04-12T00:51:44.125Z,97543.78
2023-04-12T00:54:48.953Z,97542.38
2023-04-12T00:57:52.780Z,97547.19
2023-04-12T01:00:57.177Z,97542.72
2023-04-12T01:04:01.492Z,97546.34
2023-04-12T01:07:19.911Z,97537.56
2023-04-12T01:10:38.535Z,97540.94
2023-04-12T01:13:50.022Z,97529.72
2023-04-12T01:16:58.675Z,97523.75
2023-04-12T01:20:13.686Z,97517.66
2023-04-12T01:23:31.117Z,97513.56
2023-04-12T01:26:42.898Z,97515.38
2023-04-12T01:29:50.023Z,97515.63
2023-04-12T01:32:54.851Z,97513.34
2023-04-12T01:36:00.328Z,97503.94
2023-04-12T01:39:05.950Z,97468.56
2023-04-12T01:42:09.649Z,97494.31
2023-04-12T01:45:14.375Z,97503.63
2023-04-12T01:48:19.551Z,97500.22
2023-04-12T01:51:35.382Z,97501.84
2023-04-12T01:54:43.085Z,97484.88
2023-04-12T01:57:48.055Z,97498.28
2023-04-12T02:00:55.773Z,97485.22
2023-04-12T02:04:00.627Z,97483.06
2023-04-12T02:07:04.489Z,97472.19
2023-04-12T02:10:08.175Z,97469.88
2023-04-12T02:13:11.301Z,97459.44
2023-04-12T02:16:16.757Z,97460.22
2023-04-12T02:19:20.188Z,97450.78
2023-04-12T02:22:24.123Z,97444.56
2023-04-12T02:25:35.946Z,97449.75
2023-04-12T02:28:40.280Z,97445.19
2023-04-12T02:31:48.282Z,97444.31
2023-04-12T02:34:52.088Z,97432.38
2023-04-12T02:37:56.403Z,97412.91
2023-04-12T02:41:03.753Z,97435.59
2023-04-12T02:44:08.968Z,97421.13
2023-04-12T02:47:15.631Z,97425.06
2023-04-12T02:50:22.700Z,97429.25
2023-04-12T02:53:33.962Z,97425.00
2023-04-12T02:56:51.176Z,97423.31
2023-04-12T03:00:21.525Z,97416.97
2023-04-12T03:03:36.580Z,97411.06
2023-04-12T03:06:53.990Z,97410.16
2023-04-12T03:10:08.433Z,97397.50
2023-04-12T03:13:16.934Z,97403.34
2023-04-12T03:16:25.973Z,97394.91
2023-04-12T03:19:39.468Z,97389.66
2023-04-12T03:22:43.003Z,97390.00
2023-04-12T03:25:46.647Z,97383.84
2023-04-12T03:29:09.552Z,97376.88
2023-04-12T03:35:00.278Z,97370.16
2023-04-12T03:38:03.492Z,97370.00
2023-04-12T03:41:07.758Z,97367.59
2023-04-12T03:44:14.244Z,97361.47
2023-04-12T03:47:18.354Z,97365.03
2023-04-12T03:50:23.526Z,97338.19
2023-04-12T03:53:32.160Z,97363.28
2023-04-12T03:56:35.920Z,97360.69
2023-04-12T03:59:43.054Z,97354.53
2023-04-12T04:02:47.465Z,97354.66
2023-04-12T04:05:54.107Z,97353.19
2023-04-12T04:08:58.315Z,97352.31
2023-04-12T04:12:02.658Z,97343.44
2023-04-12T04:15:07.797Z,97338.91
2023-04-12T04:18:10.997Z,97335.53
2023-04-12T04:21:16.051Z,97331.13
2023-04-12T04:24:22.262Z,97332.69
2023-04-12T04:27:30.390Z,97328.38
2023-04-12T04:30:34.109Z,97321.63
2023-04-12T04:33:39.164Z,97311.09
2023-04-12T04:36:44.899Z,97316.09
2023-04-12T04:39:52.021Z,97314.06
2023-04-12T04:42:55.572Z,97306.34
2023-04-12T04:46:02.220Z,97305.31
2023-04-12T04:49:06.307Z,97301.63
2023-04-12T04:52:10.968Z,97315.25
2023-04-12T04:55:14.717Z,97309.13
2023-04-12T04:58:21.149Z,97304.59
2023-04-12T05:01:26.171Z,97310.44
2023-04-12T05:04:30.052Z,97314.53
2023-04-12T05:07:34.705Z,97310.78
2023-04-12T05:10:37.936Z,97310.56
2023-04-12T05:13:41.130Z,97311.91
2023-04-12T05:16:44.399Z,97298.22
2023-04-12T05:19:47.553Z,97286.88
2023-04-12T05:22:52.290Z,97297.72
2023-04-12T05:25:55.645Z,97293.00
2023-04-12T05:29:01.515Z,97283.31
2023-04-12T05:32:04.862Z,97283.06
2023-04-12T05:35:08.685Z,97276.75
2023-04-12T05:38:16.108Z,97274.19
2023-04-12T05:41:22.303Z,97280.03
2023-04-12T05:44:25.811Z,97276.97
2023-04-12T05:47:29.100Z,97275.88
2023-04-12T05:50:33.193Z,97266.81
2023-04-12T05:53:37.880Z,97272.75
2023-04-12T05:56:42.904Z,97268.34
2023-04-12T05:59:46.157Z,97283.53
2023-04-12T06:02:50.477Z,97283.47
2023-04-12T06:05:54.995Z,97269.50
2023-04-12T06:09:00.589Z,97265.34
2023-04-12T06:12:05.356Z,97272.00
2023-04-12T06:15:12.536Z,97259.56
2023-04-12T06:18:15.917Z,97256.84
2023-04-12T06:21:21.664Z,97250.91
2023-04-12T06:24:26.236Z,97255.81
2023-04-12T06:27:29.590Z,97244.72
2023-04-12T06:30:33.124Z,97243.88
2023-04-12T06:33:36.696Z,97246.81
2023-04-12T06:36:43.509Z,97250.28
2023-04-12T06:39:48.041Z,97240.28
2023-04-12T06:42:51.438Z,97241.59
2023-04-12T06:45:58.773Z,97233.50
2023-04-12T06:49:02.335Z,97228.16
2023-04-12T06:52:05.474Z,97234.41
2023-04-12T06:55:10.726Z,97239.44
2023-04-12T06:58:13.925Z,97232.25
2023-04-12T07:01:17.680Z,97220.50
2023-04-12T07:04:21.157Z,97219.38
2023-04-12T07:07:26.652Z,97209.56
2023-04-12T07:10:36.105Z,97208.25
2023-04-12T07:13:39.670Z,97205.13
2023-04-12T07:16:43.997Z,97197.91
2023-04-12T07:19:47.731Z,97202.31
2023-04-12T07:22:50.960Z,97196.81
2023-04-12T07:26:00.563Z,97186.25
2023-04-12T07:29:03.769Z,97199.47
2023-04-12T07:32:07.683Z,97180.53
2023-04-12T07:35:11.380Z,97183.59
2023-04-12T07:38:16.699Z,97181.22
2023-04-12T07:41:21.669Z,97163.56
2023-04-12T07:44:24.968Z,97162.50
2023-04-12T07:47:28.204Z,97142.06
2023-04-12T07:50:31.348Z,97159.06
2023-04-12T07:53:34.515Z,97164.06
2023-04-12T07:56:39.202Z,97142.13
2023-04-12T07:59:42.338Z,97149.34
2023-04-12T08:02:45.621Z,97136.31
2023-04-12T08:05:53.330Z,97142.81
2023-04-12T08:08:56.713Z,97125.84
2023-04-12T08:12:03.512Z,97122.50
2023-04-12T08:15:07.574Z,97129.81
2023-04-12T08:18:11.115Z,97122.13
2023-04-12T08:21:14.382Z,97123.16
2023-04-12T08:24:17.528Z,97118.00
2023-04-12T08:27:22.007Z,97114.84
2023-04-12T08:30:26.953Z,97105.00
2023-04-12T08:33:30.252Z,97090.03
2023-04-12T08:36:33.391Z,97095.72
2023-04-12T08:39:37.562Z,97105.91
2023-04-12T08:42:42.252Z,97089.19
2023-04-12T08:45:45.783Z,97091.69
2023-04-12T08:48:50.641Z,97085.84
2023-04-12T08:51:55.121Z,97085.88
2023-04-12T08:54:58.262Z,97084.59
2023-04-12T08:58:07.258Z,97071.09
2023-04-12T09:01:14.800Z,97059.88
2023-04-12T09:04:18.324Z,97057.41
2023-04-12T09:07:23.211Z,97055.97
2023-04-12T09:10:35.092Z,97049.06
2023-04-12T09:13:39.672Z,97045.56
2023-04-12T09:16:43.560Z,97050.88
2023-04-12T09:19:46.758Z,97028.97
2023-04-12T09:22:50.095Z,97022.41
2023-04-12T09:25:53.903Z,97022.34
2023-04-12T09:28:58.494Z,97018.22
2023-04-12T09:35:01.269Z,97011.75
2023-04-12T09:38:08.703Z,97002.53
2023-04-12T09:41:26.156Z,96990.69
2023-04-12T09:44:30.664Z,96981.28
2023-04-12T09:47:40.887Z,96973.81
2023-04-12T09:50:46.821Z,96964.22
2023-04-12T09:53:52.291Z,96972.13
2023-04-12T09:56:56.810Z,96966.66
2023-04-12T10:00:05.448Z,96969.16
2023-04-12T10:03:14.687Z,96969.16
2023-04-12T10:06:20.446Z,96964.16
2023-04-12T10:09:23.884Z,96950.00
2023-04-12T10:12:28.210Z,96940.97
2023-04-12T10:15:33.155Z,96953.28
2023-04-12T10:18:40.906Z,96958.59
2023-04-12T10:21:45.626Z,96963.19
2023-04-12T10:24:49.930Z,96957.44
2023-04-12T10:27:53.248Z,96946.47
2023-04-12T10:30:58.564Z,96921.56
2023-04-12T10:34:02.872Z,96919.41
2023-04-12T10:37:07.855Z,96903.91
2023-04-12T10:40:19.042Z,96898.13
2023-04-12T10:43:26.309Z,96902.00
2023-04-12T10:46:49.665Z,96882.97
2023-04-12T10:50:21.750Z,96889.50
2023-04-12T10:53:26.907Z,96877.78
2023-04-12T10:56:40.986Z,96872.06
2023-04-12T10:59:56.877Z,96877.25
2023-04-12T11:03:12.117Z,96870.22
2023-04-12T11:06:26.987Z,96859.91
2023-04-12T11:09:51.772Z,96861.31
2023-04-12T11:13:08.844Z,96862.72
2023-04-12T11:16:12.866Z,96887.03
2023-04-12T11:19:17.420Z,96844.75
2023-04-12T11:22:22.220Z,96866.44
2023-04-12T11:25:27.638Z,96881.78
2023-04-12T11:28:33.139Z,96868.31
2023-04-12T11:31:39.391Z,96851.13
2023-04-12T11:34:44.112Z,96865.78
2023-04-12T11:37:47.426Z,96870.81
2023-04-12T11:40:51.985Z,96868.50
2023-04-12T11:43:57.182Z,96862.47
2023-04-12T11:47:01.203Z,96863.28
2023-04-12T11:50:04.438Z,96857.38
2023-04-12T11:53:12.465Z,96800.06
2023-04-12T11:56:16.913Z,96830.38
2023-04-12T11:59:20.059Z,96826.75
2023-04-12T12:02:24.395Z,96825.97
2023-04-12T12:05:29.052Z,96811.38
2023-04-12T12:08:32.510Z,96821.72
2023-04-12T12:11:37.262Z,96819.66
2023-04-12T12:14:40.818Z,96811.31
2023-04-12T12:17:44.113Z,96803.69
2023-04-12T12:20:51.318Z,96813.16
2023-04-12T12:23:56.500Z,96798.34
2023-04-12T12:27:04.061Z,96800.03
2023-04-12T12:30:09.459Z,96788.78
2023-04-12T12:33:13.943Z,96780.75
2023-04-12T12:36:21.022Z,96769.56
2023-04-12T12:39:24.303Z,96760.25
2023-04-12T12:42:29.115Z,96754.22
2023-04-12T12:45:33.236Z,96733.09
2023-04-12T12:48:40.380Z,96740.94
2023-04-12T12:51:43.925Z,96739.94
2023-04-12T12:54:47.001Z,96740.97
2023-04-12T12:58:06.742Z,96737.66
2023-04-12T13:01:11.170Z,96728.75
2023-04-12T13:04:14.707Z,96733.94
2023-04-12T13:07:17.930Z,96727.69
2023-04-12T13:10:21.094Z,96733.72
2023-04-12T13:13:25.874Z,96725.28
2023-04-12T13:16:29.289Z,96712.16
2023-04-12T13:19:32.446Z,96711.22
2023-04-12T13:22:35.772Z,96714.41
2023-04-12T13:25:39.598Z,96712.75
2023-04-12T13:28:44.050Z,96712.56
2023-04-12T13:31:47.351Z,96693.34
2023-04-12T13:34:50.628Z,96698.50
2023-04-12T13:37:53.796Z,96685.81
2023-04-12T13:40:59.168Z,96678.00
2023-04-12T13:44:03.973Z,96677.03
2023-04-12T13:47:07.082Z,96671.16
2023-04-12T13:50:11.247Z,96671.88
2023-04-12T13:53:14.436Z,96663.28
2023-04-12T13:56:17.742Z,96661.50
2023-04-12T13:59:22.545Z,96671.50
2023-04-12T14:02:26.719Z,96658.69
2023-04-12T14:05:31.260Z,96645.75
2023-04-12T14:08:34.914Z,96643.81
2023-04-12T14:11:48.142Z,96637.53
2023-04-12T14:14:52.678Z,96639.91
2023-04-12T14:17:56.417Z,96637.41
2023-04-12T14:20:59.759Z,96630.44
2023-04-12T14:24:04.214Z,96621.72
2023-04-12T14:27:07.818Z,96613.38
2023-04-12T14:30:12.691Z,96615.97
2023-04-12T14:33:15.972Z,96612.19
2023-04-12T14:36:19.220Z,96612.69
2023-04-12T14:39:24.339Z,96604.88
2023-04-12T14:42:28.237Z,96596.75
2023-04-12T14:45:32.886Z,96586.47
2023-04-12T14:48:36.120Z,96585.53
2023-04-12T14:51:39.231Z,96584.00
2023-04-12T14:54:42.418Z,96576.09
2023-04-12T14:57:45.570Z,96572.16
2023-04-12T15:00:50.154Z,96578.06
2023-04-12T15:03:54.167Z,96554.41
2023-04-12T15:06:57.714Z,96542.88
2023-04-12T15:10:01.246Z,96542.88
2023-04-12T15:13:04.419Z,96549.13
2023-04-12T15:16:10.128Z,96550.56
2023-04-12T15:19:19.855Z,96557.06
2023-04-12T15:22:26.382Z,96546.97
2023-04-12T15:25:34.105Z,96534.47
2023-04-12T15:28:37.877Z,96543.31
2023-04-12T15:35:01.308Z,96530.31
2023-04-12T15:38:06.037Z,96532.91
2023-04-12T15:41:10.477Z,96531.50
2023-04-12T15:44:13.851Z,96522.03
2023-04-12T15:47:16.996Z,96514.28
2023-04-12T15:50:21.840Z,96511.97
2023-04-12T15:53:27.369Z,96512.66
2023-04-12T15:56:32.417Z,96518.53
2023-04-12T15:59:36.896Z,96515.25
2023-04-12T16:02:40.363Z,96503.81
2023-04-12T16:05:45.196Z,96498.94
2023-04-12T16:08:49.049Z,96501.22
2023-04-12T16:11:52.653Z,96494.69
2023-04-12T16:14:56.483Z,96493.22
2023-04-12T16:17:59.592Z,96485.88
2023-04-12T16:21:04.349Z,96492.47
2023-04-12T16:24:07.892Z,96483.50
2023-04-12T16:27:11.114Z,96490.19
2023-04-12T16:30:15.749Z,96490.41
2023-04-12T16:33:19.185Z,96487.81
2023-04-12T16:36:24.454Z,96480.25
2023-04-12T16:39:29.163Z,96486.34
2023-04-12T16:42:32.392Z,96493.78
2023-04-12T16:45:35.644Z,96508.03
2023-04-12T16:48:41.029Z,96511.63
2023-04-12T16:51:45.845Z,96510.91
2023-04-12T16:54:49.034Z,96515.88
2023-04-12T16:57:53.715Z,96520.38
2023-04-12T17:00:57.876Z,96543.00
2023-04-12T17:04:01.609Z,96550.28
2023-04-12T17:07:06.599Z,96573.75
2023-04-12T17:10:10.536Z,96569.34
2023-04-12T17:13:18.607Z,96551.50
2023-04-12T17:16:24.665Z,96561.25
2023-04-12T17:19:27.843Z,96557.50
2023-04-12T17:22:32.557Z,96559.34
2023-04-12T17:25:35.704Z,96578.00
2023-04-12T17:28:39.656Z,96579.03
2023-04-12T17:31:42.797Z,96601.28
2023-04-12T17:34:46.036Z,96616.38
2023-04-12T17:37:50.694Z,58865.03
2023-04-12T18:18:16.803Z,58865.03
2023-04-12T18:21:21.271Z,58865.03
2023-04-12T18:24:24.786Z,58865.03
2023-04-12T18:27:28.126Z,58865.03
2023-04-12T18:30:31.667Z,58865.03
2023-04-12T18:33:36.484Z,58865.03
2023-04-12T18:36:39.911Z,58865.03
2023-04-12T18:39:43.349Z,58865.03
2023-04-12T18:42:46.979Z,58865.03
2023-04-12T18:45:50.753Z,58865.03
2023-04-12T18:48:55.701Z,58865.03
2023-04-12T18:51:59.177Z,58865.03
2023-04-12T18:55:02.692Z,58865.03
2023-04-12T18:58:06.935Z,58865.03
2023-04-12T19:01:10.484Z,58865.03
2023-04-12T19:04:16.815Z,58865.03
2023-04-12T19:07:20.685Z,58865.03
2023-04-12T19:10:27.805Z,58865.03
2023-04-12T19:13:31.560Z,58865.03
2023-04-12T19:16:36.108Z,58865.03
2023-04-12T19:19:41.315Z,58865.03
2023-04-12T19:22:44.828Z,58865.03
2023-04-12T19:25:48.650Z,58865.03
2023-04-12T19:28:55.397Z,58865.03
2023-04-12T19:32:00.749Z,58865.03
2023-04-12T19:35:07.329Z,58865.03
2023-04-12T19:38:10.708Z,58865.03
2023-04-12T19:41:28.299Z,96754.59
2023-04-12T19:44:31.739Z,96758.19
2023-04-12T19:47:35.577Z,96738.28
2023-04-12T19:50:38.866Z,96668.72
2023-04-12T19:53:42.109Z,96725.47
2023-04-12T19:56:46.999Z,96721.56
2023-04-12T19:59:51.039Z,96654.28
2023-04-12T20:02:55.180Z,96743.09
2023-04-12T20:05:59.168Z,96749.25
2023-04-12T20:09:03.244Z,96754.50
2023-04-12T20:12:08.841Z,96760.94
2023-04-12T20:15:14.091Z,96765.66
2023-04-12T20:18:17.867Z,96764.34
2023-04-12T20:21:21.556Z,96763.44
2023-04-12T20:24:25.588Z,96769.25
2023-04-12T20:27:32.012Z,96779.38
2023-04-12T20:30:36.367Z,96785.25
2023-04-12T20:33:39.792Z,96788.44
2023-04-12T20:36:43.438Z,96781.16
2023-04-12T20:39:46.525Z,96790.50
2023-04-12T20:42:51.382Z,96787.47
2023-04-12T20:45:54.915Z,96788.78
2023-04-12T20:48:58.311Z,96783.00
2023-04-12T20:52:02.276Z,96775.63
2023-04-12T20:55:05.951Z,96781.53
2023-04-12T20:58:12.031Z,96783.72
2023-04-12T21:01:15.377Z,96789.50
2023-04-12T21:04:20.042Z,96792.03
2023-04-12T21:07:25.878Z,96788.34
2023-04-12T21:10:33.536Z,96791.13
2023-04-12T21:13:38.121Z,96790.59
2023-04-12T21:16:41.898Z,96791.16
2023-04-12T21:19:45.179Z,96788.88
2023-04-12T21:22:51.699Z,96785.97
2023-04-12T21:25:54.972Z,96795.47
2023-04-12T21:29:00.557Z,96789.22
2023-04-12T21:34:59.983Z,96811.19
2023-04-12T21:38:03.098Z,96830.25
2023-04-12T21:41:07.072Z,96836.56
2023-04-12T21:44:12.385Z,96840.81
2023-04-12T21:47:15.760Z,96831.03
2023-04-12T21:50:20.419Z,96835.09
2023-04-12T21:53:23.553Z,96824.63
2023-04-12T21:56:27.412Z,96850.81
2023-04-12T21:59:30.755Z,96864.28
2023-04-12T22:02:34.080Z,96848.91
2023-04-12T22:05:39.753Z,96854.16
2023-04-12T22:08:44.142Z,96849.56
2023-04-12T22:11:49.025Z,96847.34
2023-04-12T22:14:52.389Z,96839.41
2023-04-12T22:17:55.694Z,96819.56
2023-04-12T22:21:03.959Z,96852.88
2023-04-12T22:24:08.125Z,96844.31
2023-04-12T22:27:11.308Z,96850.78
2023-04-12T22:30:16.005Z,96847.47
2023-04-12T22:33:19.227Z,96843.66
2023-04-12T22:36:28.640Z,96845.47
2023-04-12T22:39:32.517Z,96859.19
2023-04-12T22:42:36.979Z,96872.69
2023-04-12T22:45:40.486Z,96866.50
2023-04-12T22:48:43.973Z,96858.56
2023-04-12T22:51:48.473Z,96860.91
2023-04-12T22:54:51.641Z,96863.75
2023-04-12T22:57:54.763Z,96867.16
2023-04-12T23:00:58.358Z,96876.50
2023-04-12T23:04:02.538Z,96887.56
2023-04-12T23:07:07.581Z,96888.47
2023-04-12T23:10:12.277Z,96892.22
2023-04-12T23:13:15.497Z,96883.09
2023-04-12T23:16:18.678Z,96875.84
2023-04-12T23:19:23.061Z,96887.00
2023-04-12T23:22:55.356Z,96891.91
2023-04-12T23:25:59.588Z,96890.41
2023-04-12T23:29:03.503Z,96888.25
2023-04-12T23:32:07.055Z,96892.94
2023-04-12T23:35:10.621Z,96878.53
2023-04-12T23:38:22.957Z,96895.09
2023-04-12T23:41:26.127Z,96896.94
2023-04-12T23:44:29.252Z,96914.38
2023-04-12T23:47:32.699Z,96908.31
2023-04-12T23:50:36.612Z,96909.97
2023-04-12T23:53:41.374Z,96913.47
2023-04-12T23:56:44.516Z,96893.50
2023-04-12T23:59:47.610Z,96897.75
